Terminal Aerodrome Forecast
Issued by NWS

Home | Current Version | Previous Version | Text Only | Print | Product List | Glossary On
Versions: 1 2 3 4 5 6 7 8 9 10 11 12 13 14 15 16
256
FTUS41 KCAR 181120
TAFPQI
TAF
KPQI 181120Z 1812/1912 VRB03KT P6SM BKN200
     FM181800 VRB03KT P6SM VCSH BKN070
     FM190000 16006KT 6SM -RA BR OVC050
     FM190400 16007KT 4SM -SHRA BR OVC015
     FM190800 15008KT 4SM -SHRA BR OVC008=

USA.gov is the U.S. government's official web portal to all federal, state and local government web resources and services.